createdAt,value
2022-10-30T00:01:20.985Z,100.00
2022-10-30T00:05:52.387Z,100.00
2022-10-30T00:10:05.197Z,100.00
2022-10-30T00:14:19.026Z,100.00
2022-10-30T00:18:42.751Z,100.00
2022-10-30T00:22:55.303Z,100.00
2022-10-30T00:27:08.341Z,100.00
2022-10-30T00:31:32.079Z,100.00
2022-10-30T00:35:50.896Z,100.00
2022-10-30T00:40:03.816Z,100.00
2022-10-30T00:44:53.499Z,100.00
2022-10-30T00:49:16.107Z,100.00
2022-10-30T00:53:30.404Z,100.00
2022-10-30T00:57:45.220Z,100.00
2022-10-30T01:01:58.620Z,100.00
2022-10-30T01:06:15.539Z,100.00
2022-10-30T01:10:27.869Z,100.00
2022-10-30T01:14:45.803Z,100.00
2022-10-30T01:19:11.010Z,100.00
2022-10-30T01:24:06.837Z,100.00
2022-10-30T01:28:28.102Z,100.00
2022-10-30T01:32:55.968Z,100.00
2022-10-30T01:37:19.060Z,100.00
2022-10-30T01:41:31.438Z,100.00
2022-10-30T01:46:02.058Z,100.00
2022-10-30T01:50:37.934Z,100.00
2022-10-30T01:55:23.214Z,100.00
2022-10-30T01:59:52.161Z,100.00
2022-10-30T02:04:04.989Z,100.00
2022-10-30T02:08:17.883Z,100.00
2022-10-30T02:12:33.901Z,100.00
2022-10-30T02:16:51.205Z,100.00
2022-10-30T02:21:03.998Z,100.00
2022-10-30T02:25:19.864Z,100.00
2022-10-30T02:29:32.155Z,100.00
2022-10-30T02:33:51.108Z,100.00
2022-10-30T02:38:04.227Z,100.00
2022-10-30T02:42:17.067Z,100.00
2022-10-30T02:46:29.435Z,100.00
2022-10-30T02:50:41.712Z,100.00
2022-10-30T02:54:54.179Z,100.00
2022-10-30T02:59:09.299Z,100.00
2022-10-30T03:03:24.122Z,100.00
2022-10-30T03:07:37.423Z,100.00
2022-10-30T03:11:49.862Z,100.00
2022-10-30T03:16:07.646Z,100.00
2022-10-30T03:20:20.341Z,100.00
2022-10-30T03:24:32.856Z,100.00
2022-10-30T03:28:45.532Z,100.00
2022-10-30T03:32:58.205Z,100.00
2022-10-30T03:37:13.824Z,100.00
2022-10-30T03:41:26.322Z,100.00
2022-10-30T03:45:39.476Z,100.00
2022-10-30T03:49:51.775Z,100.00
2022-10-30T03:54:04.298Z,100.00
2022-10-30T03:58:16.631Z,100.00
2022-10-30T04:02:28.939Z,100.00
2022-10-30T04:06:41.210Z,100.00
2022-10-30T04:10:53.718Z,100.00
2022-10-30T04:15:08.723Z,100.00
2022-10-30T04:19:21.570Z,100.00
2022-10-30T04:23:33.938Z,100.00
2022-10-30T04:27:46.252Z,100.00
2022-10-30T04:31:58.595Z,100.00
2022-10-30T04:36:11.076Z,100.00
2022-10-30T04:40:25.243Z,100.00
2022-10-30T04:44:37.547Z,100.00
2022-10-30T04:48:49.871Z,100.00
2022-10-30T04:53:13.750Z,100.00
2022-10-30T04:57:26.033Z,100.00
2022-10-30T05:01:38.521Z,100.00
2022-10-30T05:06:33.428Z,100.00
2022-10-30T05:10:45.753Z,100.00
2022-10-30T05:14:58.073Z,100.00
2022-10-30T05:19:10.417Z,100.00
2022-10-30T05:23:22.800Z,100.00
2022-10-30T05:27:35.074Z,100.00
2022-10-30T05:31:47.372Z,100.00
2022-10-30T05:35:59.687Z,100.00
2022-10-30T05:40:12.107Z,100.00
2022-10-30T05:44:40.467Z,100.00
2022-10-30T05:48:56.782Z,100.00
2022-10-30T05:53:10.429Z,100.00
2022-10-30T05:57:22.727Z,100.00
2022-10-30T06:01:35.174Z,100.00
2022-10-30T06:05:48.465Z,100.00
2022-10-30T06:10:00.749Z,100.00
2022-10-30T06:15:01.288Z,100.00
2022-10-30T06:20:01.193Z,100.00
2022-10-30T06:24:29.051Z,100.00
2022-10-30T06:28:41.344Z,100.00
2022-10-30T06:33:05.507Z,100.00
2022-10-30T06:37:18.589Z,100.00
2022-10-30T06:41:30.905Z,100.00
2022-10-30T06:45:43.193Z,100.00
2022-10-30T06:49:55.486Z,100.00
2022-10-30T06:54:08.105Z,100.00
2022-10-30T06:58:20.459Z,100.00
2022-10-30T07:02:32.961Z,100.00
2022-10-30T07:06:45.334Z,100.00
2022-10-30T07:10:59.414Z,100.00
2022-10-30T07:15:11.715Z,100.00
2022-10-30T07:19:34.099Z,100.00
2022-10-30T07:23:46.451Z,100.00
2022-10-30T07:28:02.758Z,100.00
2022-10-30T07:32:15.352Z,100.00
2022-10-30T07:36:28.146Z,100.00
2022-10-30T07:40:40.507Z,100.00
2022-10-30T07:44:52.865Z,100.00
2022-10-30T07:49:05.246Z,100.00
2022-10-30T07:53:17.631Z,100.00
2022-10-30T07:57:35.883Z,100.00
2022-10-30T08:01:48.343Z,100.00
2022-10-30T08:10:21.867Z,100.00
2022-10-30T08:14:35.702Z,100.00
2022-10-30T08:18:48.060Z,100.00
2022-10-30T08:23:01.109Z,100.00
2022-10-30T08:27:13.760Z,100.00
2022-10-30T08:31:26.198Z,100.00
2022-10-30T08:35:57.789Z,100.00
2022-10-30T08:40:14.089Z,100.00
2022-10-30T08:44:27.549Z,100.00
2022-10-30T08:48:39.865Z,100.00
2022-10-30T08:52:54.679Z,100.00
2022-10-30T08:57:07.338Z,100.00
2022-10-30T09:01:20.313Z,100.00
2022-10-30T09:05:32.701Z,100.00
2022-10-30T09:09:45.006Z,100.00
2022-10-30T09:13:57.291Z,100.00
2022-10-30T09:18:09.684Z,100.00
2022-10-30T09:22:21.982Z,100.00
2022-10-30T09:26:34.318Z,100.00
2022-10-30T09:30:46.631Z,100.00
2022-10-30T09:34:58.945Z,100.00
2022-10-30T09:39:12.011Z,100.00
2022-10-30T09:43:50.113Z,100.00
2022-10-30T09:54:42.552Z,100.00
2022-10-30T10:04:59.056Z,93.68
2022-10-30T10:20:27.163Z,99.95
2022-10-30T10:37:33.147Z,77.58
2022-10-30T10:42:16.636Z,83.62
2022-10-30T10:54:25.622Z,83.41
2022-10-30T11:04:26.080Z,76.82
2022-10-30T11:14:32.449Z,75.40
2022-10-30T11:24:39.849Z,70.73
2022-10-30T11:29:34.142Z,74.46
2022-10-30T11:34:30.190Z,76.49
2022-10-30T11:39:11.331Z,71.87
2022-10-30T11:43:26.374Z,68.76
2022-10-30T11:47:40.259Z,60.62
2022-10-30T11:51:53.927Z,60.43
2022-10-30T11:56:20.008Z,61.05
2022-10-30T12:00:35.985Z,59.57
2022-10-30T12:04:48.339Z,63.73
2022-10-30T12:09:21.607Z,58.02
2022-10-30T12:13:48.675Z,63.19
2022-10-30T12:18:03.238Z,54.94
2022-10-30T12:22:35.709Z,50.39
2022-10-30T12:26:54.904Z,50.25
2022-10-30T12:31:10.166Z,50.69
2022-10-30T12:35:32.417Z,50.22
2022-10-30T12:40:02.441Z,56.18
2022-10-30T12:44:24.791Z,53.36
2022-10-30T12:48:50.495Z,50.81
2022-10-30T12:53:19.284Z,52.32
2022-10-30T12:57:38.141Z,52.90
2022-10-30T13:02:11.550Z,56.70
2022-10-30T13:06:32.086Z,57.96
2022-10-30T13:10:50.115Z,61.29
2022-10-30T13:15:23.401Z,55.00
2022-10-30T13:19:36.143Z,64.86
2022-10-30T13:24:05.625Z,64.73
2022-10-30T13:28:28.711Z,67.40
2022-10-30T13:32:59.952Z,71.15
2022-10-30T13:37:26.515Z,75.08
2022-10-30T13:41:47.819Z,80.04
2022-10-30T13:46:19.986Z,84.32
2022-10-30T13:50:57.768Z,80.01
2022-10-30T13:55:27.428Z,83.90
2022-10-30T13:59:59.345Z,88.71
2022-10-30T14:04:21.813Z,93.75
2022-10-30T14:08:36.771Z,88.01
2022-10-30T14:12:58.353Z,91.95
2022-10-30T14:17:13.227Z,88.19
2022-10-30T14:21:43.823Z,95.16
2022-10-30T14:26:12.117Z,98.78
2022-10-30T14:30:28.581Z,100.00
2022-10-30T14:34:41.988Z,100.00
2022-10-30T14:39:01.760Z,99.42
2022-10-30T14:43:45.980Z,97.47
2022-10-30T14:48:15.273Z,100.00
2022-10-30T14:52:33.714Z,100.00
2022-10-30T14:56:51.411Z,100.00
2022-10-30T15:01:22.123Z,100.00
2022-10-30T15:05:46.965Z,100.00
2022-10-30T15:10:31.977Z,100.00
2022-10-30T15:14:54.306Z,100.00
2022-10-30T15:19:09.468Z,100.00
2022-10-30T15:23:34.687Z,100.00
2022-10-30T15:27:49.943Z,100.00
2022-10-30T15:32:17.071Z,100.00
2022-10-30T15:36:41.559Z,100.00
2022-10-30T15:41:02.986Z,100.00
2022-10-30T15:45:39.426Z,100.00
2022-10-30T15:49:57.989Z,100.00
2022-10-30T15:54:11.942Z,100.00
2022-10-30T15:58:25.751Z,100.00
2022-10-30T16:02:38.211Z,100.00
2022-10-30T16:06:51.229Z,100.00
2022-10-30T16:11:03.815Z,100.00
2022-10-30T16:15:27.496Z,100.00
2022-10-30T16:19:48.706Z,100.00
2022-10-30T16:24:03.304Z,100.00
2022-10-30T16:28:36.498Z,100.00
2022-10-30T16:32:53.321Z,100.00
2022-10-30T16:37:11.916Z,100.00
2022-10-30T16:41:27.083Z,100.00
2022-10-30T16:45:47.866Z,100.00
2022-10-30T16:50:00.298Z,100.00
2022-10-30T16:54:37.945Z,100.00
2022-10-30T16:58:51.130Z,100.00
2022-10-30T17:03:10.009Z,100.00
2022-10-30T17:07:30.249Z,100.00
2022-10-30T17:11:48.038Z,100.00
2022-10-30T17:16:16.107Z,100.00
2022-10-30T17:20:34.156Z,100.00
2022-10-30T17:24:48.553Z,100.00
2022-10-30T17:29:00.973Z,100.00
2022-10-30T17:33:36.027Z,100.00
2022-10-30T17:37:48.352Z,100.00
2022-10-30T17:42:00.788Z,100.00
2022-10-30T17:46:19.132Z,100.00
2022-10-30T17:50:33.066Z,100.00
2022-10-30T17:54:45.645Z,100.00
2022-10-30T17:59:08.592Z,100.00
2022-10-30T18:03:21.905Z,100.00
2022-10-30T18:07:34.277Z,100.00
2022-10-30T18:11:46.663Z,100.00
2022-10-30T18:15:59.606Z,100.00
2022-10-30T18:20:12.011Z,100.00
2022-10-30T18:24:24.365Z,100.00
2022-10-30T18:28:36.741Z,100.00
2022-10-30T18:32:49.706Z,100.00
2022-10-30T18:37:02.157Z,100.00
2022-10-30T18:41:21.239Z,100.00
2022-10-30T18:45:41.703Z,100.00
2022-10-30T18:49:54.137Z,100.00
2022-10-30T18:54:15.642Z,100.00
2022-10-30T18:58:28.006Z,100.00
2022-10-30T19:02:49.338Z,100.00
2022-10-30T19:07:02.932Z,100.00
2022-10-30T19:11:20.330Z,100.00
2022-10-30T19:15:41.894Z,100.00
2022-10-30T19:19:54.410Z,100.00
2022-10-30T19:24:12.892Z,100.00
2022-10-30T19:28:26.607Z,100.00
2022-10-30T19:32:38.937Z,100.00
2022-10-30T19:36:51.609Z,100.00
2022-10-30T19:41:04.054Z,100.00
2022-10-30T19:45:25.022Z,100.00
2022-10-30T19:49:37.374Z,100.00
2022-10-30T19:53:51.231Z,100.00
2022-10-30T19:58:05.109Z,100.00
2022-10-30T20:02:21.622Z,100.00
2022-10-30T20:06:33.996Z,100.00
2022-10-30T20:10:50.839Z,100.00
2022-10-30T20:15:03.168Z,100.00
2022-10-30T20:19:29.978Z,100.00
2022-10-30T20:23:42.298Z,100.00
2022-10-30T20:28:05.719Z,100.00
2022-10-30T20:32:22.401Z,100.00
2022-10-30T20:36:34.803Z,100.00
2022-10-30T20:40:48.773Z,100.00
2022-10-30T20:45:01.126Z,100.00
2022-10-30T20:49:17.824Z,100.00
2022-10-30T20:53:31.167Z,100.00
2022-10-30T20:57:44.025Z,100.00
2022-10-30T21:01:58.223Z,100.00
2022-10-30T21:06:10.799Z,100.00
2022-10-30T21:10:26.547Z,100.00
2022-10-30T21:14:42.575Z,100.00
2022-10-30T21:18:55.742Z,100.00
2022-10-30T21:23:11.026Z,100.00
2022-10-30T21:27:23.357Z,100.00
2022-10-30T21:31:35.776Z,100.00
2022-10-30T21:35:48.338Z,100.00
2022-10-30T21:40:05.797Z,100.00
2022-10-30T21:44:18.202Z,100.00
2022-10-30T21:52:32.415Z,100.00
2022-10-30T21:56:44.769Z,100.00
2022-10-30T22:00:57.123Z,100.00
2022-10-30T22:05:09.942Z,100.00
2022-10-30T22:09:22.358Z,100.00
2022-10-30T22:13:35.696Z,100.00
2022-10-30T22:17:48.037Z,100.00
2022-10-30T22:22:00.359Z,100.00
2022-10-30T22:26:21.647Z,100.00
2022-10-30T22:36:30.692Z,100.00
2022-10-30T22:41:32.799Z,100.00
2022-10-30T22:45:54.660Z,100.00
2022-10-30T22:50:07.320Z,100.00
2022-10-30T22:54:19.621Z,100.00
2022-10-30T22:58:32.220Z,100.00
2022-10-30T23:02:55.880Z,100.00
2022-10-30T23:07:08.262Z,100.00
2022-10-30T23:11:31.334Z,100.00
2022-10-30T23:15:43.857Z,100.00
2022-10-30T23:19:56.889Z,100.00
2022-10-30T23:24:09.367Z,100.00
2022-10-30T23:28:21.947Z,100.00
2022-10-30T23:32:44.264Z,100.00
2022-10-30T23:36:59.191Z,100.00
2022-10-30T23:41:14.063Z,100.00
2022-10-30T23:45:26.728Z,100.00
2022-10-30T23:49:39.044Z,100.00
2022-10-30T23:53:51.823Z,100.00
2022-10-30T23:58:10.884Z,100.00
